sensor_id;sensor_type;location;lat;lon;timestamp;pressure;altitude;pressure_sealevel;temperature;humidity
54455;BME280;40364;52.270;10.546;2024-02-15T00:02:03;100676.16;;;25.35;46.16
54455;BME280;40364;52.270;10.546;2024-02-15T00:04:29;100675.56;;;24.01;48.08
54455;BME280;40364;52.270;10.546;2024-02-15T00:06:57;100679.81;;;24.36;48.62
54455;BME280;40364;52.270;10.546;2024-02-15T00:09:25;100672.78;;;25.04;47.70
54455;BME280;40364;52.270;10.546;2024-02-15T00:11:51;100668.25;;;23.50;51.16
54455;BME280;40364;52.270;10.546;2024-02-15T00:14:19;100687.28;;;25.09;46.64
54455;BME280;40364;52.270;10.546;2024-02-15T00:16:46;100667.75;;;26.58;42.34
54455;BME280;40364;52.270;10.546;2024-02-15T00:19:12;100682.81;;;24.49;46.90
54455;BME280;40364;52.270;10.546;2024-02-15T00:21:42;100671.56;;;27.09;42.86
54455;BME280;40364;52.270;10.546;2024-02-15T00:24:09;100680.19;;;25.54;45.44
54455;BME280;40364;52.270;10.546;2024-02-15T00:26:37;100675.91;;;25.09;47.65
54455;BME280;40364;52.270;10.546;2024-02-15T00:29:04;100682.31;;;24.34;47.75
54455;BME280;40364;52.270;10.546;2024-02-15T00:31:31;100669.28;;;25.32;44.89
54455;BME280;40364;52.270;10.546;2024-02-15T00:33:57;100678.88;;;26.07;44.13
54455;BME280;40364;52.270;10.546;2024-02-15T00:36:24;100672.91;;;26.01;43.93
54455;BME280;40364;52.270;10.546;2024-02-15T00:38:51;100671.59;;;24.42;47.66
54455;BME280;40364;52.270;10.546;2024-02-15T00:41:18;100677.47;;;24.08;49.77
54455;BME280;40364;52.270;10.546;2024-02-15T00:43:46;100674.13;;;25.15;49.12
54455;BME280;40364;52.270;10.546;2024-02-15T00:46:13;100673.34;;;25.15;46.94
54455;BME280;40364;52.270;10.546;2024-02-15T00:48:40;100672.31;;;24.46;48.67
54455;BME280;40364;52.270;10.546;2024-02-15T00:51:07;100676.13;;;24.79;48.39
54455;BME280;40364;52.270;10.546;2024-02-15T00:53:34;100676.41;;;24.45;48.31
54455;BME280;40364;52.270;10.546;2024-02-15T00:56:00;100672.69;;;25.07;46.75
54455;BME280;40364;52.270;10.546;2024-02-15T00:58:27;100674.94;;;24.13;48.71
54455;BME280;40364;52.270;10.546;2024-02-15T01:00:55;100676.34;;;24.68;48.37
54455;BME280;40364;52.270;10.546;2024-02-15T01:03:21;100674.41;;;26.67;42.25
54455;BME280;40364;52.270;10.546;2024-02-15T01:05:48;100674.63;;;24.08;49.29
54455;BME280;40364;52.270;10.546;2024-02-15T01:08:15;100686.09;;;24.47;47.22
54455;BME280;40364;52.270;10.546;2024-02-15T01:10:41;100683.41;;;25.56;45.30
54455;BME280;40364;52.270;10.546;2024-02-15T01:13:08;100684.03;;;24.71;48.25
54455;BME280;40364;52.270;10.546;2024-02-15T01:15:35;100689.22;;;24.33;47.76
54455;BME280;40364;52.270;10.546;2024-02-15T01:18:04;100686.41;;;25.48;47.14
54455;BME280;40364;52.270;10.546;2024-02-15T01:20:31;100686.97;;;23.21;51.89
54455;BME280;40364;52.270;10.546;2024-02-15T01:22:57;100688.34;;;24.99;46.69
54455;BME280;40364;52.270;10.546;2024-02-15T01:25:24;100681.88;;;25.15;46.09
54455;BME280;40364;52.270;10.546;2024-02-15T01:27:53;100699.94;;;25.64;43.81
54455;BME280;40364;52.270;10.546;2024-02-15T01:30:20;100696.00;;;24.63;47.72
54455;BME280;40364;52.270;10.546;2024-02-15T01:32:46;100690.88;;;24.94;46.41
54455;BME280;40364;52.270;10.546;2024-02-15T01:35:14;100694.41;;;25.73;46.11
54455;BME280;40364;52.270;10.546;2024-02-15T01:37:41;100683.97;;;26.15;44.47
54455;BME280;40364;52.270;10.546;2024-02-15T01:40:08;100692.19;;;25.65;45.13
54455;BME280;40364;52.270;10.546;2024-02-15T01:42:38;100679.06;;;24.95;46.50
54455;BME280;40364;52.270;10.546;2024-02-15T01:45:05;100674.41;;;26.38;44.05
54455;BME280;40364;52.270;10.546;2024-02-15T01:47:32;100672.47;;;25.87;43.64
54455;BME280;40364;52.270;10.546;2024-02-15T01:49:59;100680.06;;;25.25;45.25
54455;BME280;40364;52.270;10.546;2024-02-15T01:52:27;100678.88;;;25.58;45.91
54455;BME280;40364;52.270;10.546;2024-02-15T01:54:54;100672.28;;;26.10;43.85
54455;BME280;40364;52.270;10.546;2024-02-15T01:57:21;100673.03;;;25.29;45.19
54455;BME280;40364;52.270;10.546;2024-02-15T01:59:50;100671.25;;;24.99;47.76
54455;BME280;40364;52.270;10.546;2024-02-15T02:02:18;100672.88;;;25.36;47.28
54455;BME280;40364;52.270;10.546;2024-02-15T02:04:47;100666.59;;;24.03;48.89
54455;BME280;40364;52.270;10.546;2024-02-15T02:07:13;100670.38;;;26.36;42.63
54455;BME280;40364;52.270;10.546;2024-02-15T02:09:42;100666.53;;;25.45;46.69
54455;BME280;40364;52.270;10.546;2024-02-15T02:12:11;100672.03;;;24.40;47.76
54455;BME280;40364;52.270;10.546;2024-02-15T02:14:37;100658.00;;;24.30;47.82
54455;BME280;40364;52.270;10.546;2024-02-15T02:17:11;100657.56;;;26.86;43.48
54455;BME280;40364;52.270;10.546;2024-02-15T02:19:39;100660.03;;;26.26;42.68
54455;BME280;40364;52.270;10.546;2024-02-15T02:22:05;100658.66;;;25.16;46.01
54455;BME280;40364;52.270;10.546;2024-02-15T02:24:44;100651.97;;;25.92;44.88
54455;BME280;40364;52.270;10.546;2024-02-15T02:27:15;100644.56;;;26.56;42.78
54455;BME280;40364;52.270;10.546;2024-02-15T02:29:42;100645.50;;;24.83;48.27
54455;BME280;40364;52.270;10.546;2024-02-15T02:32:10;100642.34;;;25.86;43.40
54455;BME280;40364;52.270;10.546;2024-02-15T02:34:37;100653.53;;;24.88;45.98
54455;BME280;40364;52.270;10.546;2024-02-15T02:37:04;100653.13;;;24.70;46.53
54455;BME280;40364;52.270;10.546;2024-02-15T02:39:33;100647.66;;;24.39;47.20
54455;BME280;40364;52.270;10.546;2024-02-15T02:42:00;100652.03;;;25.56;44.15
54455;BME280;40364;52.270;10.546;2024-02-15T02:44:27;100648.13;;;27.01;42.15
54455;BME280;40364;52.270;10.546;2024-02-15T02:46:54;100651.56;;;23.79;48.75
54455;BME280;40364;52.270;10.546;2024-02-15T02:49:21;100654.22;;;24.76;46.19
54455;BME280;40364;52.270;10.546;2024-02-15T02:51:48;100657.19;;;25.08;45.80
54455;BME280;40364;52.270;10.546;2024-02-15T02:54:14;100653.78;;;24.14;48.45
54455;BME280;40364;52.270;10.546;2024-02-15T02:56:41;100666.13;;;24.71;45.96
54455;BME280;40364;52.270;10.546;2024-02-15T02:59:09;100662.38;;;24.34;47.20
54455;BME280;40364;52.270;10.546;2024-02-15T03:01:37;100666.16;;;24.47;49.30
54455;BME280;40364;52.270;10.546;2024-02-15T03:04:05;100664.56;;;24.46;46.96
54455;BME280;40364;52.270;10.546;2024-02-15T03:06:31;100669.31;;;25.48;44.33
54455;BME280;40364;52.270;10.546;2024-02-15T03:08:58;100668.69;;;25.57;43.46
54455;BME280;40364;52.270;10.546;2024-02-15T03:11:25;100670.06;;;26.01;42.55
54455;BME280;40364;52.270;10.546;2024-02-15T03:13:51;100670.56;;;24.52;45.54
54455;BME280;40364;52.270;10.546;2024-02-15T03:16:21;100676.00;;;25.58;45.64
54455;BME280;40364;52.270;10.546;2024-02-15T03:18:51;100674.69;;;24.71;47.41
54455;BME280;40364;52.270;10.546;2024-02-15T03:21:18;100682.59;;;23.70;49.74
54455;BME280;40364;52.270;10.546;2024-02-15T03:23:45;100682.69;;;25.15;45.02
54455;BME280;40364;52.270;10.546;2024-02-15T03:26:12;100683.13;;;24.55;46.39
54455;BME280;40364;52.270;10.546;2024-02-15T03:28:39;100680.16;;;25.01;44.86
54455;BME280;40364;52.270;10.546;2024-02-15T03:31:07;100671.19;;;25.03;44.54
54455;BME280;40364;52.270;10.546;2024-02-15T03:33:35;100681.91;;;26.32;42.58
54455;BME280;40364;52.270;10.546;2024-02-15T03:36:04;100675.72;;;26.50;42.18
54455;BME280;40364;52.270;10.546;2024-02-15T03:38:31;100671.56;;;26.22;42.06
54455;BME280;40364;52.270;10.546;2024-02-15T03:40:57;100678.31;;;24.71;45.48
54455;BME280;40364;52.270;10.546;2024-02-15T03:43:25;100665.13;;;26.63;41.22
54455;BME280;40364;52.270;10.546;2024-02-15T03:45:51;100679.41;;;25.17;44.02
54455;BME280;40364;52.270;10.546;2024-02-15T03:48:18;100678.97;;;24.79;45.37
54455;BME280;40364;52.270;10.546;2024-02-15T03:50:44;100683.69;;;25.61;43.91
54455;BME280;40364;52.270;10.546;2024-02-15T03:53:13;100684.06;;;25.79;43.80
54455;BME280;40364;52.270;10.546;2024-02-15T03:55:39;100674.88;;;24.80;46.13
54455;BME280;40364;52.270;10.546;2024-02-15T03:58:05;100678.31;;;25.47;43.95
54455;BME280;40364;52.270;10.546;2024-02-15T04:00:33;100686.53;;;26.42;41.96
54455;BME280;40364;52.270;10.546;2024-02-15T04:02:59;100690.75;;;25.73;43.00
54455;BME280;40364;52.270;10.546;2024-02-15T04:05:26;100698.78;;;25.42;43.57
54455;BME280;40364;52.270;10.546;2024-02-15T04:07:52;100696.75;;;24.20;46.76
54455;BME280;40364;52.270;10.546;2024-02-15T04:10:21;100693.44;;;25.80;44.24
54455;BME280;40364;52.270;10.546;2024-02-15T04:12:48;100689.19;;;24.57;46.61
54455;BME280;40364;52.270;10.546;2024-02-15T04:15:15;100695.78;;;25.49;44.01
54455;BME280;40364;52.270;10.546;2024-02-15T04:17:42;100691.78;;;24.28;48.44
54455;BME280;40364;52.270;10.546;2024-02-15T04:20:10;100698.84;;;25.22;45.69
54455;BME280;40364;52.270;10.546;2024-02-15T04:22:38;100691.50;;;25.05;45.55
54455;BME280;40364;52.270;10.546;2024-02-15T04:25:08;100701.38;;;24.77;47.29
54455;BME280;40364;52.270;10.546;2024-02-15T04:27:37;100697.47;;;25.46;45.81
54455;BME280;40364;52.270;10.546;2024-02-15T04:30:04;100706.53;;;27.00;40.94
54455;BME280;40364;52.270;10.546;2024-02-15T04:32:35;100694.38;;;26.38;42.00
54455;BME280;40364;52.270;10.546;2024-02-15T04:35:02;100692.63;;;25.79;43.03
54455;BME280;40364;52.270;10.546;2024-02-15T04:37:30;100690.41;;;24.99;45.17
54455;BME280;40364;52.270;10.546;2024-02-15T04:40:00;100692.13;;;24.73;46.34
54455;BME280;40364;52.270;10.546;2024-02-15T04:42:34;100693.03;;;26.43;42.81
54455;BME280;40364;52.270;10.546;2024-02-15T04:45:04;100698.69;;;25.65;44.52
54455;BME280;40364;52.270;10.546;2024-02-15T04:47:33;100696.44;;;26.38;42.65
54455;BME280;40364;52.270;10.546;2024-02-15T04:50:00;100700.53;;;25.72;44.25
54455;BME280;40364;52.270;10.546;2024-02-15T04:52:27;100704.31;;;27.21;40.41
54455;BME280;40364;52.270;10.546;2024-02-15T04:54:54;100710.00;;;25.33;43.69
54455;BME280;40364;52.270;10.546;2024-02-15T04:57:23;100699.59;;;25.06;45.33
54455;BME280;40364;52.270;10.546;2024-02-15T04:59:51;100694.91;;;27.07;40.74
54455;BME280;40364;52.270;10.546;2024-02-15T05:02:19;100688.41;;;27.20;41.18
54455;BME280;40364;52.270;10.546;2024-02-15T05:04:47;100688.56;;;26.58;41.59
54455;BME280;40364;52.270;10.546;2024-02-15T05:07:13;100694.59;;;27.56;39.59
54455;BME280;40364;52.270;10.546;2024-02-15T05:09:42;100686.72;;;27.47;39.34
54455;BME280;40364;52.270;10.546;2024-02-15T05:12:10;100695.81;;;28.66;37.61
54455;BME280;40364;52.270;10.546;2024-02-15T05:14:36;100683.31;;;26.98;40.09
54455;BME280;40364;52.270;10.546;2024-02-15T05:17:03;100694.66;;;26.73;41.19
54455;BME280;40364;52.270;10.546;2024-02-15T05:20:05;100700.41;;;28.85;37.47
54455;BME280;40364;52.270;10.546;2024-02-15T05:24:28;100698.41;;;27.66;39.65
54455;BME280;40364;52.270;10.546;2024-02-15T05:26:29;100685.09;;;25.53;43.04
54455;BME280;40364;52.270;10.546;2024-02-15T05:28:56;100692.25;;;25.61;43.63
54455;BME280;40364;52.270;10.546;2024-02-15T05:31:22;100706.56;;;24.82;45.64
54455;BME280;40364;52.270;10.546;2024-02-15T05:33:51;100708.59;;;25.41;45.07
54455;BME280;40364;52.270;10.546;2024-02-15T05:36:21;100696.66;;;24.90;47.91
54455;BME280;40364;52.270;10.546;2024-02-15T05:38:52;100694.94;;;25.32;46.74
54455;BME280;40364;52.270;10.546;2024-02-15T05:41:28;100699.59;;;25.06;45.70
54455;BME280;40364;52.270;10.546;2024-02-15T05:43:55;100690.78;;;25.37;45.65
54455;BME280;40364;52.270;10.546;2024-02-15T05:46:23;100693.41;;;24.48;47.56
54455;BME280;40364;52.270;10.546;2024-02-15T05:48:50;100692.28;;;25.05;46.90
54455;BME280;40364;52.270;10.546;2024-02-15T05:51:18;100688.47;;;24.72;47.07
54455;BME280;40364;52.270;10.546;2024-02-15T05:53:54;100683.78;;;24.42;49.14
54455;BME280;40364;52.270;10.546;2024-02-15T05:56:24;100691.25;;;24.76;47.66
54455;BME280;40364;52.270;10.546;2024-02-15T05:58:51;100686.97;;;25.60;44.88
54455;BME280;40364;52.270;10.546;2024-02-15T06:01:17;100688.09;;;23.80;50.16
54455;BME280;40364;52.270;10.546;2024-02-15T06:03:44;100690.31;;;24.16;48.73
54455;BME280;40364;52.270;10.546;2024-02-15T06:06:13;100695.13;;;24.66;47.52
54455;BME280;40364;52.270;10.546;2024-02-15T06:08:40;100693.66;;;25.53;44.00
54455;BME280;40364;52.270;10.546;2024-02-15T06:11:08;100689.78;;;25.96;45.28
54455;BME280;40364;52.270;10.546;2024-02-15T06:13:36;100705.94;;;24.31;48.50
54455;BME280;40364;52.270;10.546;2024-02-15T06:16:03;100698.91;;;25.18;46.77
54455;BME280;40364;52.270;10.546;2024-02-15T06:18:34;100696.06;;;25.18;46.34
54455;BME280;40364;52.270;10.546;2024-02-15T06:21:03;100699.28;;;25.21;45.65
54455;BME280;40364;52.270;10.546;2024-02-15T06:23:30;100701.53;;;25.65;43.91
54455;BME280;40364;52.270;10.546;2024-02-15T06:25:59;100697.75;;;25.16;45.50
54455;BME280;40364;52.270;10.546;2024-02-15T06:28:27;100699.00;;;26.48;43.93
54455;BME280;40364;52.270;10.546;2024-02-15T06:31:14;100710.28;;;25.38;45.70
54455;BME280;40364;52.270;10.546;2024-02-15T06:33:58;100710.13;;;24.00;49.93
54455;BME280;40364;52.270;10.546;2024-02-15T06:36:47;100713.34;;;27.32;41.97
54455;BME280;40364;52.270;10.546;2024-02-15T06:39:31;100719.47;;;25.66;44.83
54455;BME280;40364;52.270;10.546;2024-02-15T06:42:07;100722.53;;;24.99;46.61
54455;BME280;40364;52.270;10.546;2024-02-15T06:44:35;100715.19;;;26.39;43.97
54455;BME280;40364;52.270;10.546;2024-02-15T06:47:02;100720.75;;;25.25;45.63
54455;BME280;40364;52.270;10.546;2024-02-15T06:49:29;100718.25;;;24.25;47.89
54455;BME280;40364;52.270;10.546;2024-02-15T06:51:56;100719.16;;;25.24;46.51
54455;BME280;40364;52.270;10.546;2024-02-15T06:54:24;100718.59;;;26.63;42.02
54455;BME280;40364;52.270;10.546;2024-02-15T06:56:51;100718.22;;;25.83;42.99
54455;BME280;40364;52.270;10.546;2024-02-15T06:59:19;100728.59;;;25.01;46.14
54455;BME280;40364;52.270;10.546;2024-02-15T07:01:49;100717.59;;;25.92;45.24
54455;BME280;40364;52.270;10.546;2024-02-15T07:04:17;100712.84;;;25.33;45.24
54455;BME280;40364;52.270;10.546;2024-02-15T07:06:44;100728.84;;;24.67;46.81
54455;BME280;40364;52.270;10.546;2024-02-15T07:09:13;100727.38;;;25.74;45.40
54455;BME280;40364;52.270;10.546;2024-02-15T07:11:43;100723.47;;;26.33;43.08
54455;BME280;40364;52.270;10.546;2024-02-15T07:14:09;100726.97;;;26.70;42.27
54455;BME280;40364;52.270;10.546;2024-02-15T07:16:36;100715.50;;;27.28;40.67
54455;BME280;40364;52.270;10.546;2024-02-15T07:19:05;100718.38;;;28.29;39.54
54455;BME280;40364;52.270;10.546;2024-02-15T07:21:34;100720.72;;;25.65;44.46
54455;BME280;40364;52.270;10.546;2024-02-15T07:24:01;100716.59;;;24.90;45.52
54455;BME280;40364;52.270;10.546;2024-02-15T07:26:30;100713.00;;;26.59;42.70
54455;BME280;40364;52.270;10.546;2024-02-15T07:28:57;100707.63;;;26.61;41.97
54455;BME280;40364;52.270;10.546;2024-02-15T07:31:27;100711.88;;;25.39;46.60
54455;BME280;40364;52.270;10.546;2024-02-15T07:33:54;100710.38;;;26.03;44.36
54455;BME280;40364;52.270;10.546;2024-02-15T07:36:23;100709.66;;;26.32;44.32
54455;BME280;40364;52.270;10.546;2024-02-15T07:38:51;100716.44;;;25.37;44.72
54455;BME280;40364;52.270;10.546;2024-02-15T07:41:18;100713.69;;;26.63;42.72
54455;BME280;40364;52.270;10.546;2024-02-15T07:43:47;100717.91;;;26.88;41.65
54455;BME280;40364;52.270;10.546;2024-02-15T07:46:15;100711.69;;;26.31;42.99
54455;BME280;40364;52.270;10.546;2024-02-15T07:48:42;100714.75;;;26.24;42.98
54455;BME280;40364;52.270;10.546;2024-02-15T07:51:12;100717.47;;;27.56;41.16
54455;BME280;40364;52.270;10.546;2024-02-15T07:53:42;100719.88;;;27.45;41.37
54455;BME280;40364;52.270;10.546;2024-02-15T07:56:09;100710.53;;;27.70;39.88
54455;BME280;40364;52.270;10.546;2024-02-15T07:58:38;100710.19;;;26.72;43.10
54455;BME280;40364;52.270;10.546;2024-02-15T08:01:06;100722.13;;;25.73;44.06
54455;BME280;40364;52.270;10.546;2024-02-15T08:03:33;100715.28;;;26.19;43.75
54455;BME280;40364;52.270;10.546;2024-02-15T08:06:00;100714.34;;;27.12;40.98
54455;BME280;40364;52.270;10.546;2024-02-15T08:08:27;100718.94;;;26.36;42.29
54455;BME280;40364;52.270;10.546;2024-02-15T08:10:55;100715.81;;;27.04;42.41
54455;BME280;40364;52.270;10.546;2024-02-15T08:13:22;100699.25;;;26.83;41.42
54455;BME280;40364;52.270;10.546;2024-02-15T08:15:53;100707.53;;;26.65;41.52
54455;BME280;40364;52.270;10.546;2024-02-15T08:18:20;100709.63;;;27.06;41.00
54455;BME280;40364;52.270;10.546;2024-02-15T08:20:46;100714.94;;;27.33;40.64
54455;BME280;40364;52.270;10.546;2024-02-15T08:23:13;100706.75;;;27.60;39.36
54455;BME280;40364;52.270;10.546;2024-02-15T08:25:40;100707.34;;;27.68;39.86
54455;BME280;40364;52.270;10.546;2024-02-15T08:28:08;100705.41;;;28.72;38.21
54455;BME280;40364;52.270;10.546;2024-02-15T08:30:36;100708.53;;;28.30;38.88
54455;BME280;40364;52.270;10.546;2024-02-15T08:33:04;100708.44;;;27.45;40.36
54455;BME280;40364;52.270;10.546;2024-02-15T08:35:30;100697.53;;;28.16;38.60
54455;BME280;40364;52.270;10.546;2024-02-15T08:37:58;100705.19;;;27.05;40.93
54455;BME280;40364;52.270;10.546;2024-02-15T08:40:24;100699.25;;;28.26;38.52
54455;BME280;40364;52.270;10.546;2024-02-15T08:42:51;100698.31;;;26.73;40.31
54455;BME280;40364;52.270;10.546;2024-02-15T08:45:19;100702.06;;;26.70;42.32
54455;BME280;40364;52.270;10.546;2024-02-15T08:47:46;100704.09;;;28.04;39.42
54455;BME280;40364;52.270;10.546;2024-02-15T08:50:15;100703.63;;;27.16;40.42
54455;BME280;40364;52.270;10.546;2024-02-15T08:52:42;100703.97;;;29.42;36.51
54455;BME280;40364;52.270;10.546;2024-02-15T08:55:10;100704.06;;;28.29;39.16
54455;BME280;40364;52.270;10.546;2024-02-15T08:57:40;100702.38;;;27.94;39.27
54455;BME280;40364;52.270;10.546;2024-02-15T09:00:10;100698.91;;;28.59;38.46
54455;BME280;40364;52.270;10.546;2024-02-15T09:02:40;100702.56;;;28.94;38.28
54455;BME280;40364;52.270;10.546;2024-02-15T09:05:07;100697.09;;;27.54;39.44
54455;BME280;40364;52.270;10.546;2024-02-15T09:07:34;100705.13;;;28.57;37.37
54455;BME280;40364;52.270;10.546;2024-02-15T09:10:02;100699.09;;;26.45;41.88
54455;BME280;40364;52.270;10.546;2024-02-15T09:12:28;100692.72;;;27.11;40.04
54455;BME280;40364;52.270;10.546;2024-02-15T09:14:56;100695.50;;;27.53;39.59
54455;BME280;40364;52.270;10.546;2024-02-15T09:17:23;100695.44;;;26.73;41.18
54455;BME280;40364;52.270;10.546;2024-02-15T09:19:53;100701.16;;;27.02;40.98
54455;BME280;40364;52.270;10.546;2024-02-15T09:22:20;100697.56;;;27.91;39.06
54455;BME280;40364;52.270;10.546;2024-02-15T09:24:46;100689.78;;;27.91;38.79
54455;BME280;40364;52.270;10.546;2024-02-15T09:27:13;100696.88;;;29.25;36.72
54455;BME280;40364;52.270;10.546;2024-02-15T09:29:40;100696.38;;;28.61;36.99
54455;BME280;40364;52.270;10.546;2024-02-15T09:32:07;100693.53;;;28.13;38.18
54455;BME280;40364;52.270;10.546;2024-02-15T09:34:34;100698.91;;;27.23;39.41
54455;BME280;40364;52.270;10.546;2024-02-15T09:37:02;100702.13;;;28.61;38.11
54455;BME280;40364;52.270;10.546;2024-02-15T09:39:30;100697.78;;;28.78;36.98
54455;BME280;40364;52.270;10.546;2024-02-15T09:41:57;100704.78;;;27.82;39.03
54455;BME280;40364;52.270;10.546;2024-02-15T09:44:24;100706.94;;;28.29;37.66
54455;BME280;40364;52.270;10.546;2024-02-15T09:47:02;100705.91;;;28.58;38.36
54455;BME280;40364;52.270;10.546;2024-02-15T09:49:32;100699.38;;;29.44;36.34
54455;BME280;40364;52.270;10.546;2024-02-15T09:52:02;100706.69;;;29.76;35.91
54455;BME280;40364;52.270;10.546;2024-02-15T09:54:30;100698.50;;;27.88;38.49
54455;BME280;40364;52.270;10.546;2024-02-15T09:57:01;100695.72;;;29.44;36.70
54455;BME280;40364;52.270;10.546;2024-02-15T09:59:27;100704.31;;;28.57;36.96
54455;BME280;40364;52.270;10.546;2024-02-15T10:01:58;100700.25;;;29.32;36.82
54455;BME280;40364;52.270;10.546;2024-02-15T10:04:25;100706.41;;;27.83;37.73
54455;BME280;40364;52.270;10.546;2024-02-15T10:06:51;100700.31;;;27.31;38.87
54455;BME280;40364;52.270;10.546;2024-02-15T10:09:26;100703.84;;;28.93;36.78
54455;BME280;40364;52.270;10.546;2024-02-15T10:11:54;100697.16;;;28.74;36.67
54455;BME280;40364;52.270;10.546;2024-02-15T10:14:24;100705.56;;;30.14;34.67
54455;BME280;40364;52.270;10.546;2024-02-15T10:16:52;100694.88;;;29.74;35.17
54455;BME280;40364;52.270;10.546;2024-02-15T10:19:19;100704.03;;;28.42;36.70
54455;BME280;40364;52.270;10.546;2024-02-15T10:21:51;100706.00;;;29.63;35.59
54455;BME280;40364;52.270;10.546;2024-02-15T10:24:18;100708.75;;;30.16;34.72
54455;BME280;40364;52.270;10.546;2024-02-15T10:26:48;100695.00;;;29.09;36.27
54455;BME280;40364;52.270;10.546;2024-02-15T10:29:14;100700.72;;;28.18;37.09
54455;BME280;40364;52.270;10.546;2024-02-15T10:31:52;100697.41;;;28.32;37.89
54455;BME280;40364;52.270;10.546;2024-02-15T10:34:20;100707.75;;;29.39;35.99
54455;BME280;40364;52.270;10.546;2024-02-15T10:36:46;100708.31;;;28.12;37.27
54455;BME280;40364;52.270;10.546;2024-02-15T10:39:15;100701.22;;;29.60;35.70
54455;BME280;40364;52.270;10.546;2024-02-15T10:41:47;100686.75;;;30.40;34.71
54455;BME280;40364;52.270;10.546;2024-02-15T10:44:19;100694.19;;;28.65;37.05
54455;BME280;40364;52.270;10.546;2024-02-15T10:46:47;100691.38;;;28.05;37.81
54455;BME280;40364;52.270;10.546;2024-02-15T10:49:17;100695.19;;;27.89;37.78
54455;BME280;40364;52.270;10.546;2024-02-15T10:51:44;100696.31;;;28.04;38.29
54455;BME280;40364;52.270;10.546;2024-02-15T10:54:17;100692.13;;;29.09;35.77
54455;BME280;40364;52.270;10.546;2024-02-15T10:56:49;100704.97;;;27.12;39.45
54455;BME280;40364;52.270;10.546;2024-02-15T10:59:24;100703.84;;;28.24;38.00
54455;BME280;40364;52.270;10.546;2024-02-15T11:01:59;100697.66;;;26.82;40.54
54455;BME280;40364;52.270;10.546;2024-02-15T11:04:31;100705.13;;;28.57;37.92
54455;BME280;40364;52.270;10.546;2024-02-15T11:07:03;100701.41;;;30.33;34.61
54455;BME280;40364;52.270;10.546;2024-02-15T11:09:31;100705.44;;;27.10;39.65
54455;BME280;40364;52.270;10.546;2024-02-15T11:11:59;100694.69;;;28.50;37.35
54455;BME280;40364;52.270;10.546;2024-02-15T11:14:28;100693.22;;;27.99;37.84
54455;BME280;40364;52.270;10.546;2024-02-15T11:16:55;100691.97;;;26.53;40.68
54455;BME280;40364;52.270;10.546;2024-02-15T11:19:49;100693.66;;;26.79;40.27
54455;BME280;40364;52.270;10.546;2024-02-15T11:22:16;100696.19;;;26.32;41.43
54455;BME280;40364;52.270;10.546;2024-02-15T11:24:47;100694.19;;;26.45;42.40
54455;BME280;40364;52.270;10.546;2024-02-15T11:27:25;100693.41;;;26.29;41.68
54455;BME280;40364;52.270;10.546;2024-02-15T11:29:53;100686.16;;;25.59;43.48
54455;BME280;40364;52.270;10.546;2024-02-15T11:32:37;100678.91;;;27.23;39.57
54455;BME280;40364;52.270;10.546;2024-02-15T11:35:06;100682.94;;;27.63;39.94
54455;BME280;40364;52.270;10.546;2024-02-15T11:37:56;100679.28;;;27.50;38.98
54455;BME280;40364;52.270;10.546;2024-02-15T11:41:03;100688.44;;;26.62;41.77
54455;BME280;40364;52.270;10.546;2024-02-15T11:43:52;100686.47;;;27.42;40.15
54455;BME280;40364;52.270;10.546;2024-02-15T11:46:24;100670.28;;;26.97;41.18
54455;BME280;40364;52.270;10.546;2024-02-15T11:48:53;100676.09;;;27.73;40.51
54455;BME280;40364;52.270;10.546;2024-02-15T11:51:31;100669.09;;;27.74;39.96
54455;BME280;40364;52.270;10.546;2024-02-15T11:54:03;100668.63;;;27.89;40.45
54455;BME280;40364;52.270;10.546;2024-02-15T11:56:48;100665.25;;;28.50;39.89
54455;BME280;40364;52.270;10.546;2024-02-15T11:59:18;100666.47;;;27.42;41.66
54455;BME280;40364;52.270;10.546;2024-02-15T12:01:55;100664.53;;;28.80;38.27
54455;BME280;40364;52.270;10.546;2024-02-15T12:04:39;100660.44;;;28.25;39.83
54455;BME280;40364;52.270;10.546;2024-02-15T12:07:23;100656.13;;;27.57;40.03
54455;BME280;40364;52.270;10.546;2024-02-15T12:10:15;100654.72;;;29.12;37.67
54455;BME280;40364;52.270;10.546;2024-02-15T12:12:59;100655.50;;;28.26;38.57
54455;BME280;40364;52.270;10.546;2024-02-15T12:15:56;100647.19;;;28.06;39.67
54455;BME280;40364;52.270;10.546;2024-02-15T12:18:42;100642.31;;;29.15;39.05
54455;BME280;40364;52.270;10.546;2024-02-15T12:21:10;100637.41;;;28.72;40.45
54455;BME280;40364;52.270;10.546;2024-02-15T12:23:39;100633.50;;;27.75;41.41
54455;BME280;40364;52.270;10.546;2024-02-15T12:26:06;100626.16;;;27.24;44.02
54455;BME280;40364;52.270;10.546;2024-02-15T12:28:34;100622.91;;;29.20;39.75
54455;BME280;40364;52.270;10.546;2024-02-15T12:31:03;100618.16;;;28.29;40.80
54455;BME280;40364;52.270;10.546;2024-02-15T12:33:32;100616.31;;;29.10;39.01
54455;BME280;40364;52.270;10.546;2024-02-15T12:36:06;100601.50;;;30.28;37.21
54455;BME280;40364;52.270;10.546;2024-02-15T12:38:33;100604.63;;;29.75;37.77
54455;BME280;40364;52.270;10.546;2024-02-15T12:41:03;100600.28;;;28.25;40.43
54455;BME280;40364;52.270;10.546;2024-02-15T12:43:29;100597.25;;;29.56;38.02
54455;BME280;40364;52.270;10.546;2024-02-15T12:45:56;100598.22;;;28.13;40.24
54455;BME280;40364;52.270;10.546;2024-02-15T12:48:24;100603.03;;;29.65;38.63
54455;BME280;40364;52.270;10.546;2024-02-15T12:50:52;100607.97;;;28.94;38.26
54455;BME280;40364;52.270;10.546;2024-02-15T12:53:22;100605.88;;;29.65;38.15